sensor_id;sensor_type;location;lat;lon;timestamp;P1;durP1;ratioP1;P2;durP2;ratioP2
41572;SDS011;27286;47.870;19.006;2023-02-28T00:00:16;21.13;;;10.18;;
41572;SDS011;27286;47.870;19.006;2023-02-28T00:02:42;20.20;;;10.68;;
41572;SDS011;27286;47.870;19.006;2023-02-28T00:05:09;20.38;;;11.02;;
41572;SDS011;27286;47.870;19.006;2023-02-28T00:07:36;17.30;;;9.73;;
41572;SDS011;27286;47.870;19.006;2023-02-28T00:10:03;17.00;;;9.40;;
41572;SDS011;27286;47.870;19.006;2023-02-28T00:12:31;13.45;;;8.38;;
41572;SDS011;27286;47.870;19.006;2023-02-28T00:14:57;12.88;;;7.53;;
41572;SDS011;27286;47.870;19.006;2023-02-28T00:17:22;13.57;;;7.40;;
41572;SDS011;27286;47.870;19.006;2023-02-28T00:19:48;11.48;;;7.28;;
41572;SDS011;27286;47.870;19.006;2023-02-28T00:22:15;9.77;;;5.05;;
41572;SDS011;27286;47.870;19.006;2023-02-28T00:24:42;10.52;;;5.75;;
41572;SDS011;27286;47.870;19.006;2023-02-28T00:27:07;10.70;;;5.40;;
41572;SDS011;27286;47.870;19.006;2023-02-28T00:29:32;17.25;;;7.50;;
41572;SDS011;27286;47.870;19.006;2023-02-28T00:31:58;16.25;;;7.05;;
41572;SDS011;27286;47.870;19.006;2023-02-28T00:34:23;13.18;;;7.13;;
41572;SDS011;27286;47.870;19.006;2023-02-28T00:36:49;11.63;;;6.75;;
41572;SDS011;27286;47.870;19.006;2023-02-28T00:39:15;13.80;;;5.88;;
41572;SDS011;27286;47.870;19.006;2023-02-28T00:41:41;12.45;;;6.63;;
41572;SDS011;27286;47.870;19.006;2023-02-28T00:44:06;12.65;;;6.00;;
41572;SDS011;27286;47.870;19.006;2023-02-28T00:46:32;11.90;;;5.80;;
41572;SDS011;27286;47.870;19.006;2023-02-28T00:48:57;11.88;;;4.90;;
41572;SDS011;27286;47.870;19.006;2023-02-28T00:51:23;10.00;;;4.18;;
41572;SDS011;27286;47.870;19.006;2023-02-28T00:53:48;9.15;;;4.85;;
41572;SDS011;27286;47.870;19.006;2023-02-28T00:56:14;10.90;;;4.82;;
41572;SDS011;27286;47.870;19.006;2023-02-28T00:58:39;13.88;;;5.53;;
41572;SDS011;27286;47.870;19.006;2023-02-28T01:01:05;13.20;;;5.13;;
41572;SDS011;27286;47.870;19.006;2023-02-28T01:03:31;8.68;;;5.03;;
41572;SDS011;27286;47.870;19.006;2023-02-28T01:05:57;8.02;;;4.82;;
41572;SDS011;27286;47.870;19.006;2023-02-28T01:08:22;9.70;;;4.78;;
41572;SDS011;27286;47.870;19.006;2023-02-28T01:10:48;11.52;;;4.88;;
41572;SDS011;27286;47.870;19.006;2023-02-28T01:13:14;15.30;;;8.45;;
41572;SDS011;27286;47.870;19.006;2023-02-28T01:15:41;17.48;;;10.02;;
41572;SDS011;27286;47.870;19.006;2023-02-28T01:18:13;19.40;;;10.15;;
41572;SDS011;27286;47.870;19.006;2023-02-28T01:20:39;18.48;;;9.80;;
41572;SDS011;27286;47.870;19.006;2023-02-28T01:23:04;18.02;;;10.57;;
41572;SDS011;27286;47.870;19.006;2023-02-28T01:25:29;15.68;;;8.15;;
41572;SDS011;27286;47.870;19.006;2023-02-28T01:27:55;14.73;;;8.23;;
41572;SDS011;27286;47.870;19.006;2023-02-28T01:30:20;15.50;;;9.70;;
41572;SDS011;27286;47.870;19.006;2023-02-28T01:32:46;12.90;;;8.57;;
41572;SDS011;27286;47.870;19.006;2023-02-28T01:35:11;13.32;;;8.13;;
41572;SDS011;27286;47.870;19.006;2023-02-28T01:37:37;16.75;;;8.77;;
41572;SDS011;27286;47.870;19.006;2023-02-28T01:40:03;16.05;;;7.90;;
41572;SDS011;27286;47.870;19.006;2023-02-28T01:42:29;16.33;;;8.77;;
41572;SDS011;27286;47.870;19.006;2023-02-28T01:47:22;14.65;;;8.25;;
41572;SDS011;27286;47.870;19.006;2023-02-28T01:49:50;15.98;;;7.82;;
41572;SDS011;27286;47.870;19.006;2023-02-28T01:52:16;13.57;;;8.00;;
41572;SDS011;27286;47.870;19.006;2023-02-28T01:54:47;13.90;;;7.40;;
41572;SDS011;27286;47.870;19.006;2023-02-28T01:57:17;13.32;;;8.18;;
41572;SDS011;27286;47.870;19.006;2023-02-28T01:59:51;17.13;;;8.88;;
41572;SDS011;27286;47.870;19.006;2023-02-28T02:02:23;13.95;;;7.88;;
41572;SDS011;27286;47.870;19.006;2023-02-28T02:07:33;14.27;;;8.20;;
41572;SDS011;27286;47.870;19.006;2023-02-28T02:10:03;10.30;;;5.30;;
41572;SDS011;27286;47.870;19.006;2023-02-28T02:12:38;9.35;;;4.95;;
41572;SDS011;27286;47.870;19.006;2023-02-28T02:17:43;13.38;;;7.40;;
41572;SDS011;27286;47.870;19.006;2023-02-28T02:20:22;12.48;;;7.18;;
41572;SDS011;27286;47.870;19.006;2023-02-28T02:25:51;14.77;;;7.90;;
41572;SDS011;27286;47.870;19.006;2023-02-28T02:28:44;14.48;;;7.70;;
41572;SDS011;27286;47.870;19.006;2023-02-28T02:34:17;10.93;;;6.05;;
41572;SDS011;27286;47.870;19.006;2023-02-28T02:36:52;13.68;;;6.00;;
41572;SDS011;27286;47.870;19.006;2023-02-28T02:40:04;13.48;;;6.75;;
41572;SDS011;27286;47.870;19.006;2023-02-28T02:48:19;9.90;;;4.78;;
41572;SDS011;27286;47.870;19.006;2023-02-28T02:50:50;16.20;;;5.90;;
41572;SDS011;27286;47.870;19.006;2023-02-28T02:53:21;13.30;;;6.63;;
41572;SDS011;27286;47.870;19.006;2023-02-28T02:55:53;12.30;;;6.82;;
41572;SDS011;27286;47.870;19.006;2023-02-28T02:58:22;14.75;;;8.38;;
41572;SDS011;27286;47.870;19.006;2023-02-28T03:00:55;15.60;;;8.38;;
41572;SDS011;27286;47.870;19.006;2023-02-28T03:03:25;22.98;;;11.07;;
41572;SDS011;27286;47.870;19.006;2023-02-28T03:05:55;25.75;;;12.38;;
41572;SDS011;27286;47.870;19.006;2023-02-28T03:08:22;23.50;;;12.07;;
41572;SDS011;27286;47.870;19.006;2023-02-28T03:10:48;17.80;;;9.00;;
41572;SDS011;27286;47.870;19.006;2023-02-28T03:18:40;5.93;;;3.40;;
41572;SDS011;27286;47.870;19.006;2023-02-28T03:27:35;8.70;;;3.97;;
41572;SDS011;27286;47.870;19.006;2023-02-28T03:33:10;7.18;;;3.70;;
41572;SDS011;27286;47.870;19.006;2023-02-28T03:35:41;7.82;;;2.97;;
41572;SDS011;27286;47.870;19.006;2023-02-28T03:38:33;7.47;;;3.05;;
41572;SDS011;27286;47.870;19.006;2023-02-28T03:41:08;8.55;;;2.97;;
41572;SDS011;27286;47.870;19.006;2023-02-28T03:43:40;5.65;;;3.05;;
41572;SDS011;27286;47.870;19.006;2023-02-28T03:46:10;8.30;;;3.33;;
41572;SDS011;27286;47.870;19.006;2023-02-28T03:48:43;7.40;;;2.80;;
41572;SDS011;27286;47.870;19.006;2023-02-28T03:51:14;7.82;;;2.80;;
41572;SDS011;27286;47.870;19.006;2023-02-28T03:53:44;6.03;;;2.75;;
41572;SDS011;27286;47.870;19.006;2023-02-28T03:56:19;7.65;;;3.38;;
41572;SDS011;27286;47.870;19.006;2023-02-28T03:58:57;6.25;;;3.13;;
41572;SDS011;27286;47.870;19.006;2023-02-28T04:02:00;5.68;;;3.28;;
41572;SDS011;27286;47.870;19.006;2023-02-28T04:04:20;5.75;;;3.45;;
41572;SDS011;27286;47.870;19.006;2023-02-28T04:06:45;6.13;;;3.40;;
41572;SDS011;27286;47.870;19.006;2023-02-28T04:09:15;5.63;;;2.72;;
41572;SDS011;27286;47.870;19.006;2023-02-28T04:11:41;5.97;;;2.50;;
41572;SDS011;27286;47.870;19.006;2023-02-28T04:14:09;9.68;;;3.13;;
41572;SDS011;27286;47.870;19.006;2023-02-28T04:16:37;8.40;;;2.70;;
41572;SDS011;27286;47.870;19.006;2023-02-28T04:19:04;5.78;;;2.47;;
41572;SDS011;27286;47.870;19.006;2023-02-28T04:21:32;6.70;;;2.53;;
41572;SDS011;27286;47.870;19.006;2023-02-28T04:24:06;5.90;;;2.42;;
41572;SDS011;27286;47.870;19.006;2023-02-28T04:26:33;7.20;;;2.60;;
41572;SDS011;27286;47.870;19.006;2023-02-28T04:29:02;5.75;;;2.85;;
41572;SDS011;27286;47.870;19.006;2023-02-28T04:31:29;6.72;;;2.95;;
41572;SDS011;27286;47.870;19.006;2023-02-28T04:33:55;8.40;;;3.20;;
41572;SDS011;27286;47.870;19.006;2023-02-28T04:36:21;6.75;;;2.22;;
41572;SDS011;27286;47.870;19.006;2023-02-28T04:38:48;5.13;;;2.42;;
41572;SDS011;27286;47.870;19.006;2023-02-28T04:41:14;7.00;;;2.40;;
41572;SDS011;27286;47.870;19.006;2023-02-28T04:43:40;5.15;;;2.65;;
41572;SDS011;27286;47.870;19.006;2023-02-28T04:46:05;8.55;;;2.83;;
41572;SDS011;27286;47.870;19.006;2023-02-28T04:48:32;7.70;;;3.08;;
41572;SDS011;27286;47.870;19.006;2023-02-28T04:51:03;6.47;;;3.30;;
41572;SDS011;27286;47.870;19.006;2023-02-28T04:53:30;6.28;;;2.88;;
41572;SDS011;27286;47.870;19.006;2023-02-28T04:55:56;8.48;;;3.47;;
41572;SDS011;27286;47.870;19.006;2023-02-28T04:58:22;5.72;;;2.47;;
41572;SDS011;27286;47.870;19.006;2023-02-28T05:00:49;6.82;;;2.85;;
41572;SDS011;27286;47.870;19.006;2023-02-28T05:03:15;7.43;;;2.80;;
41572;SDS011;27286;47.870;19.006;2023-02-28T05:05:40;7.57;;;2.75;;
41572;SDS011;27286;47.870;19.006;2023-02-28T05:08:05;8.02;;;3.17;;
41572;SDS011;27286;47.870;19.006;2023-02-28T05:10:31;7.03;;;3.30;;
41572;SDS011;27286;47.870;19.006;2023-02-28T05:12:57;7.88;;;2.67;;
41572;SDS011;27286;47.870;19.006;2023-02-28T05:15:23;6.03;;;2.38;;
41572;SDS011;27286;47.870;19.006;2023-02-28T05:17:49;7.43;;;2.17;;
41572;SDS011;27286;47.870;19.006;2023-02-28T05:20:14;7.78;;;3.72;;
41572;SDS011;27286;47.870;19.006;2023-02-28T05:22:40;7.22;;;3.30;;
41572;SDS011;27286;47.870;19.006;2023-02-28T05:25:06;9.32;;;2.47;;
41572;SDS011;27286;47.870;19.006;2023-02-28T05:27:36;5.95;;;2.80;;
41572;SDS011;27286;47.870;19.006;2023-02-28T05:30:01;6.97;;;3.45;;
41572;SDS011;27286;47.870;19.006;2023-02-28T05:32:29;6.97;;;3.15;;
41572;SDS011;27286;47.870;19.006;2023-02-28T05:34:54;7.13;;;3.28;;
41572;SDS011;27286;47.870;19.006;2023-02-28T05:37:20;7.75;;;3.15;;
41572;SDS011;27286;47.870;19.006;2023-02-28T05:39:45;8.05;;;3.25;;
41572;SDS011;27286;47.870;19.006;2023-02-28T05:42:11;6.93;;;3.03;;
41572;SDS011;27286;47.870;19.006;2023-02-28T05:44:36;6.57;;;2.30;;
41572;SDS011;27286;47.870;19.006;2023-02-28T05:47:02;7.22;;;2.45;;
41572;SDS011;27286;47.870;19.006;2023-02-28T05:49:27;7.50;;;2.35;;
41572;SDS011;27286;47.870;19.006;2023-02-28T05:51:53;6.70;;;2.72;;
41572;SDS011;27286;47.870;19.006;2023-02-28T05:54:18;6.38;;;2.88;;
41572;SDS011;27286;47.870;19.006;2023-02-28T05:56:43;5.40;;;2.55;;
41572;SDS011;27286;47.870;19.006;2023-02-28T05:59:11;8.48;;;2.97;;
41572;SDS011;27286;47.870;19.006;2023-02-28T06:01:40;7.47;;;3.35;;
41572;SDS011;27286;47.870;19.006;2023-02-28T06:04:07;5.78;;;2.33;;
41572;SDS011;27286;47.870;19.006;2023-02-28T06:06:34;6.60;;;2.88;;
41572;SDS011;27286;47.870;19.006;2023-02-28T06:09:02;6.65;;;3.58;;
41572;SDS011;27286;47.870;19.006;2023-02-28T06:11:30;5.90;;;2.92;;
41572;SDS011;27286;47.870;19.006;2023-02-28T06:13:57;5.65;;;2.88;;
41572;SDS011;27286;47.870;19.006;2023-02-28T06:16:25;6.00;;;3.00;;
41572;SDS011;27286;47.870;19.006;2023-02-28T06:18:51;5.47;;;2.63;;
41572;SDS011;27286;47.870;19.006;2023-02-28T06:21:17;7.55;;;2.78;;
41572;SDS011;27286;47.870;19.006;2023-02-28T06:23:43;9.68;;;2.92;;
41572;SDS011;27286;47.870;19.006;2023-02-28T06:26:09;9.90;;;3.10;;
41572;SDS011;27286;47.870;19.006;2023-02-28T06:28:35;7.07;;;2.67;;
41572;SDS011;27286;47.870;19.006;2023-02-28T06:31:05;6.47;;;3.30;;
41572;SDS011;27286;47.870;19.006;2023-02-28T06:33:34;8.48;;;3.63;;
41572;SDS011;27286;47.870;19.006;2023-02-28T06:35:59;7.68;;;3.25;;
41572;SDS011;27286;47.870;19.006;2023-02-28T06:38:25;5.95;;;2.55;;
41572;SDS011;27286;47.870;19.006;2023-02-28T06:40:54;7.68;;;3.13;;
41572;SDS011;27286;47.870;19.006;2023-02-28T06:43:20;11.32;;;3.53;;
41572;SDS011;27286;47.870;19.006;2023-02-28T06:45:46;9.18;;;3.50;;
41572;SDS011;27286;47.870;19.006;2023-02-28T06:48:12;5.85;;;2.97;;
41572;SDS011;27286;47.870;19.006;2023-02-28T06:50:37;7.38;;;3.05;;
41572;SDS011;27286;47.870;19.006;2023-02-28T06:53:03;8.13;;;3.92;;
41572;SDS011;27286;47.870;19.006;2023-02-28T06:55:28;6.07;;;3.33;;
41572;SDS011;27286;47.870;19.006;2023-02-28T06:57:54;8.43;;;3.65;;
41572;SDS011;27286;47.870;19.006;2023-02-28T07:00:20;7.53;;;2.95;;
41572;SDS011;27286;47.870;19.006;2023-02-28T07:02:46;7.72;;;3.15;;
41572;SDS011;27286;47.870;19.006;2023-02-28T07:05:12;7.88;;;3.88;;
41572;SDS011;27286;47.870;19.006;2023-02-28T07:07:38;7.25;;;2.92;;
41572;SDS011;27286;47.870;19.006;2023-02-28T07:10:07;7.70;;;3.08;;
41572;SDS011;27286;47.870;19.006;2023-02-28T07:12:33;8.35;;;3.60;;
41572;SDS011;27286;47.870;19.006;2023-02-28T07:14:59;8.80;;;4.07;;
41572;SDS011;27286;47.870;19.006;2023-02-28T07:17:24;9.70;;;3.47;;
41572;SDS011;27286;47.870;19.006;2023-02-28T07:19:49;7.03;;;3.80;;
41572;SDS011;27286;47.870;19.006;2023-02-28T07:22:15;9.63;;;3.88;;
41572;SDS011;27286;47.870;19.006;2023-02-28T07:24:40;8.93;;;4.03;;
41572;SDS011;27286;47.870;19.006;2023-02-28T07:27:06;7.40;;;3.40;;
41572;SDS011;27286;47.870;19.006;2023-02-28T07:29:31;7.18;;;3.15;;
41572;SDS011;27286;47.870;19.006;2023-02-28T07:31:57;7.43;;;3.45;;
41572;SDS011;27286;47.870;19.006;2023-02-28T07:34:22;8.07;;;3.42;;
41572;SDS011;27286;47.870;19.006;2023-02-28T07:36:48;10.27;;;4.05;;
41572;SDS011;27286;47.870;19.006;2023-02-28T07:39:13;6.78;;;3.72;;
41572;SDS011;27286;47.870;19.006;2023-02-28T07:41:39;6.57;;;3.20;;
41572;SDS011;27286;47.870;19.006;2023-02-28T07:44:11;11.05;;;3.50;;
41572;SDS011;27286;47.870;19.006;2023-02-28T07:46:37;7.22;;;3.60;;
41572;SDS011;27286;47.870;19.006;2023-02-28T07:49:03;7.13;;;2.75;;
41572;SDS011;27286;47.870;19.006;2023-02-28T07:51:29;8.25;;;3.30;;
41572;SDS011;27286;47.870;19.006;2023-02-28T07:53:55;9.15;;;4.03;;
41572;SDS011;27286;47.870;19.006;2023-02-28T07:56:20;6.88;;;3.47;;
41572;SDS011;27286;47.870;19.006;2023-02-28T07:58:46;10.70;;;3.42;;
41572;SDS011;27286;47.870;19.006;2023-02-28T08:01:11;8.90;;;4.10;;
41572;SDS011;27286;47.870;19.006;2023-02-28T08:03:37;5.25;;;2.80;;
41572;SDS011;27286;47.870;19.006;2023-02-28T08:06:04;8.93;;;3.45;;
41572;SDS011;27286;47.870;19.006;2023-02-28T08:08:31;4.60;;;2.55;;
41572;SDS011;27286;47.870;19.006;2023-02-28T08:11:00;7.78;;;3.20;;
41572;SDS011;27286;47.870;19.006;2023-02-28T08:13:27;7.05;;;3.28;;
41572;SDS011;27286;47.870;19.006;2023-02-28T08:15:54;6.15;;;3.40;;
41572;SDS011;27286;47.870;19.006;2023-02-28T08:18:20;8.10;;;4.38;;
41572;SDS011;27286;47.870;19.006;2023-02-28T08:20:47;7.95;;;3.60;;
41572;SDS011;27286;47.870;19.006;2023-02-28T08:23:12;9.68;;;3.72;;
41572;SDS011;27286;47.870;19.006;2023-02-28T08:25:38;7.05;;;3.33;;
41572;SDS011;27286;47.870;19.006;2023-02-28T08:28:04;9.70;;;3.58;;
41572;SDS011;27286;47.870;19.006;2023-02-28T08:30:29;7.85;;;3.53;;
41572;SDS011;27286;47.870;19.006;2023-02-28T08:32:55;8.07;;;4.10;;
41572;SDS011;27286;47.870;19.006;2023-02-28T08:35:20;8.98;;;4.22;;
41572;SDS011;27286;47.870;19.006;2023-02-28T08:37:49;8.10;;;3.35;;
41572;SDS011;27286;47.870;19.006;2023-02-28T08:40:16;6.70;;;3.05;;
41572;SDS011;27286;47.870;19.006;2023-02-28T08:42:47;6.03;;;3.42;;
41572;SDS011;27286;47.870;19.006;2023-02-28T08:45:13;6.57;;;3.92;;
41572;SDS011;27286;47.870;19.006;2023-02-28T08:47:40;8.02;;;4.22;;
41572;SDS011;27286;47.870;19.006;2023-02-28T08:50:06;8.23;;;4.03;;
41572;SDS011;27286;47.870;19.006;2023-02-28T08:52:32;11.93;;;3.38;;
41572;SDS011;27286;47.870;19.006;2023-02-28T08:54:57;9.15;;;3.92;;
41572;SDS011;27286;47.870;19.006;2023-02-28T08:57:23;7.15;;;4.22;;
41572;SDS011;27286;47.870;19.006;2023-02-28T08:59:51;7.07;;;4.38;;
41572;SDS011;27286;47.870;19.006;2023-02-28T09:02:16;9.05;;;4.68;;
41572;SDS011;27286;47.870;19.006;2023-02-28T09:04:42;7.72;;;3.72;;
41572;SDS011;27286;47.870;19.006;2023-02-28T09:07:10;7.57;;;3.78;;
41572;SDS011;27286;47.870;19.006;2023-02-28T09:09:36;6.03;;;3.05;;
41572;SDS011;27286;47.870;19.006;2023-02-28T09:12:01;6.85;;;3.95;;
41572;SDS011;27286;47.870;19.006;2023-02-28T09:14:27;7.15;;;3.33;;
41572;SDS011;27286;47.870;19.006;2023-02-28T09:16:53;16.45;;;4.05;;
41572;SDS011;27286;47.870;19.006;2023-02-28T09:19:19;5.55;;;3.08;;
41572;SDS011;27286;47.870;19.006;2023-02-28T09:21:45;6.70;;;3.33;;
41572;SDS011;27286;47.870;19.006;2023-02-28T09:24:10;7.40;;;3.38;;
41572;SDS011;27286;47.870;19.006;2023-02-28T09:26:39;8.32;;;3.63;;
41572;SDS011;27286;47.870;19.006;2023-02-28T09:29:05;10.15;;;3.92;;
41572;SDS011;27286;47.870;19.006;2023-02-28T09:31:31;7.30;;;2.95;;
41572;SDS011;27286;47.870;19.006;2023-02-28T09:33:58;5.82;;;3.15;;
41572;SDS011;27286;47.870;19.006;2023-02-28T09:36:24;5.93;;;3.13;;
41572;SDS011;27286;47.870;19.006;2023-02-28T09:38:51;6.82;;;3.60;;
41572;SDS011;27286;47.870;19.006;2023-02-28T09:41:27;5.97;;;3.65;;
41572;SDS011;27286;47.870;19.006;2023-02-28T09:44:05;5.85;;;3.65;;
41572;SDS011;27286;47.870;19.006;2023-02-28T09:46:39;7.28;;;4.25;;
41572;SDS011;27286;47.870;19.006;2023-02-28T09:49:12;7.28;;;4.10;;
41572;SDS011;27286;47.870;19.006;2023-02-28T09:54:22;7.50;;;4.10;;
41572;SDS011;27286;47.870;19.006;2023-02-28T10:04:57;9.35;;;4.35;;
41572;SDS011;27286;47.870;19.006;2023-02-28T10:12:49;10.68;;;4.32;;
41572;SDS011;27286;47.870;19.006;2023-02-28T10:15:18;8.43;;;5.63;;
41572;SDS011;27286;47.870;19.006;2023-02-28T10:17:48;10.43;;;5.20;;
41572;SDS011;27286;47.870;19.006;2023-02-28T10:20:20;7.55;;;4.35;;
41572;SDS011;27286;47.870;19.006;2023-02-28T10:22:53;9.13;;;4.68;;
41572;SDS011;27286;47.870;19.006;2023-02-28T10:25:23;8.85;;;4.70;;
41572;SDS011;27286;47.870;19.006;2023-02-28T10:27:54;8.07;;;4.95;;
41572;SDS011;27286;47.870;19.006;2023-02-28T10:30:25;6.95;;;5.03;;
41572;SDS011;27286;47.870;19.006;2023-02-28T10:32:51;6.38;;;4.22;;
41572;SDS011;27286;47.870;19.006;2023-02-28T10:35:21;7.13;;;4.63;;
41572;SDS011;27286;47.870;19.006;2023-02-28T10:37:49;6.85;;;4.82;;
41572;SDS011;27286;47.870;19.006;2023-02-28T10:45:27;5.50;;;3.95;;
41572;SDS011;27286;47.870;19.006;2023-02-28T10:48:02;7.95;;;4.13;;
41572;SDS011;27286;47.870;19.006;2023-02-28T10:56:03;6.40;;;4.22;;
41572;SDS011;27286;47.870;19.006;2023-02-28T10:58:52;4.70;;;2.95;;
41572;SDS011;27286;47.870;19.006;2023-02-28T11:01:19;4.45;;;2.22;;
41572;SDS011;27286;47.870;19.006;2023-02-28T11:03:45;4.97;;;2.80;;
41572;SDS011;27286;47.870;19.006;2023-02-28T11:06:20;3.88;;;2.25;;
41572;SDS011;27286;47.870;19.006;2023-02-28T11:08:49;4.57;;;2.30;;
41572;SDS011;27286;47.870;19.006;2023-02-28T11:11:20;4.85;;;2.15;;
41572;SDS011;27286;47.870;19.006;2023-02-28T11:13:50;4.65;;;2.75;;
41572;SDS011;27286;47.870;19.006;2023-02-28T11:16:18;8.45;;;2.90;;
41572;SDS011;27286;47.870;19.006;2023-02-28T11:18:52;3.85;;;2.20;;
41572;SDS011;27286;47.870;19.006;2023-02-28T11:23:51;4.53;;;2.00;;
41572;SDS011;27286;47.870;19.006;2023-02-28T11:26:35;6.25;;;2.20;;
41572;SDS011;27286;47.870;19.006;2023-02-28T11:29:03;5.72;;;2.80;;
41572;SDS011;27286;47.870;19.006;2023-02-28T11:31:36;3.92;;;2.45;;
41572;SDS011;27286;47.870;19.006;2023-02-28T11:34:01;4.97;;;2.42;;
41572;SDS011;27286;47.870;19.006;2023-02-28T11:36:46;4.30;;;2.70;;
41572;SDS011;27286;47.870;19.006;2023-02-28T11:39:13;4.38;;;2.42;;
41572;SDS011;27286;47.870;19.006;2023-02-28T11:41:52;3.13;;;1.92;;
41572;SDS011;27286;47.870;19.006;2023-02-28T11:44:47;5.20;;;2.25;;
41572;SDS011;27286;47.870;19.006;2023-02-28T11:47:54;3.38;;;2.22;;
41572;SDS011;27286;47.870;19.006;2023-02-28T11:50:42;4.85;;;2.25;;
41572;SDS011;27286;47.870;19.006;2023-02-28T12:01:31;5.10;;;1.77;;
41572;SDS011;27286;47.870;19.006;2023-02-28T12:04:25;2.95;;;1.67;;
41572;SDS011;27286;47.870;19.006;2023-02-28T12:07:03;4.20;;;2.00;;
41572;SDS011;27286;47.870;19.006;2023-02-28T12:09:38;3.30;;;1.90;;
41572;SDS011;27286;47.870;19.006;2023-02-28T12:23:17;3.83;;;2.25;;
41572;SDS011;27286;47.870;19.006;2023-02-28T12:26:05;5.03;;;1.87;;
41572;SDS011;27286;47.870;19.006;2023-02-28T12:28:41;2.70;;;1.45;;
41572;SDS011;27286;47.870;19.006;2023-02-28T12:33:46;3.88;;;1.85;;
41572;SDS011;27286;47.870;19.006;2023-02-28T12:36:16;3.50;;;1.60;;
41572;SDS011;27286;47.870;19.006;2023-02-28T12:44:06;4.32;;;1.52;;
41572;SDS011;27286;47.870;19.006;2023-02-28T12:46:44;4.53;;;2.45;;
41572;SDS011;27286;47.870;19.006;2023-02-28T12:51:51;3.95;;;1.83;;
41572;SDS011;27286;47.870;19.006;2023-02-28T12:59:25;3.90;;;2.25;;
41572;SDS011;27286;47.870;19.006;2023-02-28T13:08:11;4.85;;;2.70;;
41572;SDS011;27286;47.870;19.006;2023-02-28T13:10:44;3.58;;;2.17;;
41572;SDS011;27286;47.870;19.006;2023-02-28T13:13:19;5.57;;;2.22;;
41572;SDS011;27286;47.870;19.006;2023-02-28T13:18:37;4.30;;;2.77;;
41572;SDS011;27286;47.870;19.006;2023-02-28T13:21:04;3.28;;;2.17;;
41572;SDS011;27286;47.870;19.006;2023-02-28T13:34:44;4.18;;;2.70;;
41572;SDS011;27286;47.870;19.006;2023-02-28T13:37:33;4.55;;;2.42;;
41572;SDS011;27286;47.870;19.006;2023-02-28T13:50:23;4.22;;;2.40;;
41572;SDS011;27286;47.870;19.006;2023-02-28T13:52:55;7.07;;;3.03;;
41572;SDS011;27286;47.870;19.006;2023-02-28T14:05:44;5.65;;;2.00;;
41572;SDS011;27286;47.870;19.006;2023-02-28T14:08:17;3.30;;;2.10;;
41572;SDS011;27286;47.870;19.006;2023-02-28T14:10:47;7.82;;;2.50;;
41572;SDS011;27286;47.870;19.006;2023-02-28T14:16:09;4.90;;;2.30;;
41572;SDS011;27286;47.870;19.006;2023-02-28T14:18:37;4.82;;;2.08;;
41572;SDS011;27286;47.870;19.006;2023-02-28T14:21:26;8.52;;;1.98;;
41572;SDS011;27286;47.870;19.006;2023-02-28T14:29:35;2.90;;;1.67;;
41572;SDS011;27286;47.870;19.006;2023-02-28T14:32:06;5.28;;;1.88;;
41572;SDS011;27286;47.870;19.006;2023-02-28T14:34:39;4.25;;;2.03;;
41572;SDS011;27286;47.870;19.006;2023-02-28T14:37:16;5.78;;;2.35;;
41572;SDS011;27286;47.870;19.006;2023-02-28T14:39:49;3.15;;;1.95;;
41572;SDS011;27286;47.870;19.006;2023-02-28T14:42:29;7.70;;;1.83;;
41572;SDS011;27286;47.870;19.006;2023-02-28T14:44:57;6.93;;;2.67;;
41572;SDS011;27286;47.870;19.006;2023-02-28T14:47:23;4.38;;;2.20;;
41572;SDS011;27286;47.870;19.006;2023-02-28T14:49:52;4.68;;;2.13;;
41572;SDS011;27286;47.870;19.006;2023-02-28T14:52:20;5.65;;;2.22;;
41572;SDS011;27286;47.870;19.006;2023-02-28T14:54:59;10.90;;;1.88;;
41572;SDS011;27286;47.870;19.006;2023-02-28T14:57:32;3.60;;;2.08;;
41572;SDS011;27286;47.870;19.006;2023-02-28T15:02:42;4.15;;;2.00;;
41572;SDS011;27286;47.870;19.006;2023-02-28T15:07:42;4.10;;;2.23;;
41572;SDS011;27286;47.870;19.006;2023-02-28T15:10:24;3.53;;;1.77;;
41572;SDS011;27286;47.870;19.006;2023-02-28T15:12:55;3.92;;;1.80;;
41572;SDS011;27286;47.870;19.006;2023-02-28T15:15:27;4.18;;;2.10;;
41572;SDS011;27286;47.870;19.006;2023-02-28T15:18:15;5.60;;;2.30;;
41572;SDS011;27286;47.870;19.006;2023-02-28T15:20:57;3.53;;;1.92;;
41572;SDS011;27286;47.870;19.006;2023-02-28T15:23:27;3.95;;;2.15;;
41572;SDS011;27286;47.870;19.006;2023-02-28T15:25:53;5.00;;;2.22;;
41572;SDS011;27286;47.870;19.006;2023-02-28T15:28:20;7.85;;;2.35;;
41572;SDS011;27286;47.870;19.006;2023-02-28T15:30:55;5.65;;;2.42;;
41572;SDS011;27286;47.870;19.006;2023-02-28T15:33:30;3.22;;;2.05;;
41572;SDS011;27286;47.870;19.006;2023-02-28T15:36:13;12.10;;;2.58;;
41572;SDS011;27286;47.870;19.006;2023-02-28T15:38:42;4.38;;;2.25;;
41572;SDS011;27286;47.870;19.006;2023-02-28T15:41:22;4.53;;;2.58;;
41572;SDS011;27286;47.870;19.006;2023-02-28T15:43:57;4.15;;;2.20;;
41572;SDS011;27286;47.870;19.006;2023-02-28T15:46:44;5.95;;;2.33;;
41572;SDS011;27286;47.870;19.006;2023-02-28T15:49:19;5.97;;;2.95;;
41572;SDS011;27286;47.870;19.006;2023-02-28T15:51:48;5.15;;;2.53;;
41572;SDS011;27286;47.870;19.006;2023-02-28T15:54:17;8.35;;;2.65;;
41572;SDS011;27286;47.870;19.006;2023-02-28T15:56:47;5.00;;;2.33;;
41572;SDS011;27286;47.870;19.006;2023-02-28T15:59:20;4.75;;;2.75;;
41572;SDS011;27286;47.870;19.006;2023-02-28T16:02:02;7.45;;;2.63;;
41572;SDS011;27286;47.870;19.006;2023-02-28T16:04:34;6.78;;;2.47;;
41572;SDS011;27286;47.870;19.006;2023-02-28T16:07:00;4.32;;;2.38;;
41572;SDS011;27286;47.870;19.006;2023-02-28T16:09:27;19.77;;;3.28;;
41572;SDS011;27286;47.870;19.006;2023-02-28T16:11:55;7.05;;;2.97;;
41572;SDS011;27286;47.870;19.006;2023-02-28T16:14:23;6.13;;;2.63;;
41572;SDS011;27286;47.870;19.006;2023-02-28T16:16:52;6.32;;;2.63;;
41572;SDS011;27286;47.870;19.006;2023-02-28T16:19:20;8.52;;;2.47;;
41572;SDS011;27286;47.870;19.006;2023-02-28T16:21:46;7.57;;;2.95;;
41572;SDS011;27286;47.870;19.006;2023-02-28T16:24:12;4.05;;;2.33;;
41572;SDS011;27286;47.870;19.006;2023-02-28T16:26:39;6.32;;;2.75;;
41572;SDS011;27286;47.870;19.006;2023-02-28T16:29:07;3.97;;;2.55;;
41572;SDS011;27286;47.870;19.006;2023-02-28T16:31:37;6.20;;;2.45;;
41572;SDS011;27286;47.870;19.006;2023-02-28T16:34:03;8.88;;;3.80;;
41572;SDS011;27286;47.870;19.006;2023-02-28T16:36:29;3.90;;;2.33;;
41572;SDS011;27286;47.870;19.006;2023-02-28T16:38:55;9.15;;;2.50;;
41572;SDS011;27286;47.870;19.006;2023-02-28T16:41:22;5.07;;;2.85;;
41572;SDS011;27286;47.870;19.006;2023-02-28T16:43:52;5.63;;;2.72;;
41572;SDS011;27286;47.870;19.006;2023-02-28T16:46:30;4.97;;;2.97;;
41572;SDS011;27286;47.870;19.006;2023-02-28T16:49:00;7.80;;;2.75;;
41572;SDS011;27286;47.870;19.006;2023-02-28T16:51:25;6.90;;;3.40;;
41572;SDS011;27286;47.870;19.006;2023-02-28T16:53:51;6.18;;;3.42;;
41572;SDS011;27286;47.870;19.006;2023-02-28T16:56:18;5.03;;;3.08;;
41572;SDS011;27286;47.870;19.006;2023-02-28T16:58:49;6.18;;;3.33;;
41572;SDS011;27286;47.870;19.006;2023-02-28T17:01:16;6.18;;;3.15;;
41572;SDS011;27286;47.870;19.006;2023-02-28T17:03:46;9.57;;;3.97;;
41572;SDS011;27286;47.870;19.006;2023-02-28T17:06:17;6.20;;;4.05;;
41572;SDS011;27286;47.870;19.006;2023-02-28T17:08:47;8.25;;;4.15;;
41572;SDS011;27286;47.870;19.006;2023-02-28T17:11:13;19.30;;;3.53;;
41572;SDS011;27286;47.870;19.006;2023-02-28T17:13:39;8.68;;;4.32;;
41572;SDS011;27286;47.870;19.006;2023-02-28T17:16:05;7.88;;;4.22;;